createdAt,value
2018-01-25T00:00:50.529Z,1.92
2018-01-25T00:03:20.027Z,1.73
2018-01-25T00:05:49.509Z,1.75
2018-01-25T00:08:18.985Z,1.58
2018-01-25T00:10:48.567Z,1.45
2018-01-25T00:13:18.032Z,1.50
2018-01-25T00:15:47.551Z,1.60
2018-01-25T00:18:17.003Z,1.70
2018-01-25T00:20:46.513Z,1.58
2018-01-25T00:23:16.071Z,1.60
2018-01-25T00:25:45.737Z,1.70
2018-01-25T00:28:15.240Z,1.95
2018-01-25T00:30:44.716Z,1.77
2018-01-25T00:33:14.228Z,1.90
2018-01-25T00:35:43.702Z,1.50
2018-01-25T00:38:13.221Z,1.70
2018-01-25T00:40:42.692Z,1.67
2018-01-25T00:43:12.208Z,1.80
2018-01-25T00:45:41.686Z,1.50
2018-01-25T00:48:11.189Z,1.20
2018-01-25T00:50:40.710Z,1.85
2018-01-25T00:53:10.180Z,1.67
2018-01-25T00:55:39.710Z,1.80
2018-01-25T00:58:09.221Z,1.90
2018-01-25T01:00:38.730Z,1.30
2018-01-25T01:03:08.211Z,1.15
2018-01-25T01:05:37.708Z,1.30
2018-01-25T01:08:07.169Z,1.60
2018-01-25T01:10:36.666Z,1.73
2018-01-25T01:13:06.133Z,1.50
2018-01-25T01:15:35.772Z,1.50
2018-01-25T01:18:05.236Z,1.75
2018-01-25T01:20:34.749Z,1.50
2018-01-25T01:23:04.244Z,1.37
2018-01-25T01:25:33.851Z,1.27
2018-01-25T01:28:03.322Z,1.15
2018-01-25T01:30:32.897Z,1.20
2018-01-25T01:33:02.420Z,1.37
2018-01-25T01:35:31.886Z,1.42
2018-01-25T01:38:01.486Z,1.55
2018-01-25T01:40:30.940Z,1.55
2018-01-25T01:43:00.464Z,1.52
2018-01-25T01:45:29.943Z,1.52
2018-01-25T01:47:59.461Z,1.50
2018-01-25T01:50:28.914Z,1.40
2018-01-25T01:52:58.452Z,1.60
2018-01-25T01:55:27.948Z,1.60
2018-01-25T01:57:57.443Z,1.52
2018-01-25T02:00:26.955Z,1.67
2018-01-25T02:02:56.483Z,1.73
2018-01-25T02:05:26.076Z,1.60
2018-01-25T02:07:55.542Z,1.50
2018-01-25T02:10:25.154Z,1.52
2018-01-25T02:12:54.618Z,1.55
2018-01-25T02:15:24.128Z,1.40
2018-01-25T02:17:53.635Z,1.52
2018-01-25T02:20:23.101Z,1.62
2018-01-25T02:22:52.625Z,1.50
2018-01-25T02:25:22.133Z,1.62
2018-01-25T02:27:51.756Z,2.08
2018-01-25T02:30:21.262Z,1.50
2018-01-25T02:32:50.760Z,1.48
2018-01-25T02:35:20.254Z,1.33
2018-01-25T02:37:49.733Z,1.70
2018-01-25T02:40:19.232Z,2.28
2018-01-25T02:42:48.713Z,1.50
2018-01-25T02:45:18.242Z,1.90
2018-01-25T02:47:47.770Z,1.60
2018-01-25T02:50:17.224Z,1.60
2018-01-25T02:52:46.724Z,1.60
2018-01-25T02:55:16.188Z,1.50
2018-01-25T02:57:45.688Z,1.60
2018-01-25T03:00:15.139Z,1.40
2018-01-25T03:02:44.692Z,1.40
2018-01-25T03:05:14.176Z,1.67
2018-01-25T03:07:43.664Z,1.60
2018-01-25T03:10:13.148Z,1.80
2018-01-25T03:12:42.660Z,1.50
2018-01-25T03:15:12.132Z,1.55
2018-01-25T03:17:41.645Z,1.83
2018-01-25T03:20:11.085Z,1.65
2018-01-25T03:22:40.608Z,1.70
2018-01-25T03:25:10.088Z,1.58
2018-01-25T03:27:39.593Z,1.65
2018-01-25T03:30:09.079Z,1.35
2018-01-25T03:32:38.552Z,1.42
2018-01-25T03:35:08.054Z,1.52
2018-01-25T03:37:37.506Z,1.70
2018-01-25T03:40:07.033Z,1.60
2018-01-25T03:42:36.491Z,1.52
2018-01-25T03:45:05.996Z,1.35
2018-01-25T03:47:35.534Z,1.60
2018-01-25T03:50:05.032Z,1.67
2018-01-25T03:52:34.529Z,1.50
2018-01-25T03:55:04.054Z,1.50
2018-01-25T03:57:33.520Z,1.60
2018-01-25T04:00:03.126Z,1.45
2018-01-25T04:02:32.659Z,1.17
2018-01-25T04:05:02.165Z,0.70
2018-01-25T04:07:31.747Z,0.70
2018-01-25T04:10:01.262Z,0.90
2018-01-25T04:12:30.734Z,0.77
2018-01-25T04:15:00.266Z,0.60
2018-01-25T04:17:29.776Z,0.90
2018-01-25T04:19:59.228Z,0.70
2018-01-25T04:22:28.734Z,0.90
2018-01-25T04:24:58.218Z,1.12
2018-01-25T04:27:27.728Z,1.12
2018-01-25T04:29:57.222Z,0.75
2018-01-25T04:32:26.732Z,0.68
2018-01-25T04:34:56.188Z,2.45
2018-01-25T04:37:25.684Z,3.75
2018-01-25T04:39:55.196Z,1.75
2018-01-25T04:42:24.645Z,0.90
2018-01-25T04:44:54.153Z,0.60
2018-01-25T04:47:23.632Z,0.90
2018-01-25T04:49:53.128Z,0.80
2018-01-25T04:52:22.600Z,0.93
2018-01-25T04:54:52.126Z,0.80
2018-01-25T04:57:21.586Z,0.70
2018-01-25T04:59:51.075Z,0.70
2018-01-25T05:02:20.525Z,0.60
2018-01-25T05:04:50.025Z,0.80
2018-01-25T05:07:19.522Z,0.70
2018-01-25T05:09:48.983Z,0.75
2018-01-25T05:12:18.476Z,0.70
2018-01-25T05:14:47.948Z,0.90
2018-01-25T05:17:22.117Z,0.70
2018-01-25T05:19:51.596Z,0.70
2018-01-25T05:22:21.111Z,0.70
2018-01-25T05:24:50.565Z,0.70
2018-01-25T05:27:20.073Z,0.80
2018-01-25T05:29:49.577Z,0.60
2018-01-25T05:32:19.043Z,0.80
2018-01-25T05:34:48.574Z,0.80
2018-01-25T05:37:18.141Z,0.70
2018-01-25T05:39:47.651Z,1.02
2018-01-25T05:42:17.142Z,0.70
2018-01-25T05:44:46.647Z,0.70
2018-01-25T05:47:16.102Z,0.80
2018-01-25T05:49:45.602Z,0.70
2018-01-25T05:52:15.114Z,0.70
2018-01-25T05:54:44.630Z,0.70
2018-01-25T05:57:14.077Z,0.85
2018-01-25T05:59:43.582Z,0.85
2018-01-25T06:02:13.074Z,0.60
2018-01-25T06:04:42.560Z,0.70
2018-01-25T06:07:12.051Z,0.70
2018-01-25T06:09:41.610Z,0.70
2018-01-25T06:12:11.118Z,0.77
2018-01-25T06:17:16.623Z,0.62
2018-01-25T06:19:46.092Z,0.73
2018-01-25T06:22:15.577Z,0.70
2018-01-25T06:24:45.057Z,1.40
2018-01-25T06:27:14.579Z,1.30
2018-01-25T06:29:44.039Z,3.00
2018-01-25T06:32:13.547Z,1.65
2018-01-25T06:34:43.003Z,1.42
2018-01-25T06:37:12.622Z,2.00
2018-01-25T06:39:42.111Z,1.83
2018-01-25T06:42:11.572Z,1.77
2018-01-25T06:44:41.163Z,2.50
2018-01-25T06:47:10.675Z,1.75
2018-01-25T06:49:40.210Z,1.90
2018-01-25T06:52:09.685Z,1.80
2018-01-25T06:54:39.219Z,1.20
2018-01-25T06:57:08.787Z,1.30
2018-01-25T06:59:38.301Z,3.80
2018-01-25T07:02:07.821Z,2.83
2018-01-25T07:04:37.320Z,2.90
2018-01-25T07:07:06.814Z,2.30
2018-01-25T07:09:36.291Z,1.40
2018-01-25T07:12:05.786Z,1.40
2018-01-25T07:14:35.238Z,1.27
2018-01-25T07:17:04.702Z,1.50
2018-01-25T07:19:34.154Z,1.05
2018-01-25T07:22:03.645Z,1.00
2018-01-25T07:24:33.117Z,0.95
2018-01-25T07:27:02.616Z,1.08
2018-01-25T07:29:32.081Z,1.17
2018-01-25T07:32:01.569Z,1.20
2018-01-25T07:34:31.069Z,0.90
2018-01-25T07:37:00.578Z,1.05
2018-01-25T07:39:30.071Z,1.10
2018-01-25T07:41:59.566Z,1.00
2018-01-25T07:44:29.125Z,0.90
2018-01-25T07:46:58.589Z,1.10
2018-01-25T07:49:28.100Z,1.30
2018-01-25T07:51:57.567Z,1.00
2018-01-25T07:54:27.068Z,1.10
2018-01-25T07:56:56.552Z,1.37
2018-01-25T07:59:26.060Z,1.05
2018-01-25T08:01:55.518Z,1.30
2018-01-25T08:04:25.041Z,1.20
2018-01-25T08:06:54.493Z,1.10
2018-01-25T08:09:23.993Z,1.52
2018-01-25T08:11:53.542Z,1.58
2018-01-25T08:14:23.085Z,1.50
2018-01-25T08:16:52.831Z,1.70
2018-01-25T08:19:22.280Z,1.55
2018-01-25T08:21:51.786Z,1.95
2018-01-25T08:24:21.282Z,1.20
2018-01-25T08:26:50.749Z,1.33
2018-01-25T08:29:20.256Z,1.40
2018-01-25T08:31:49.750Z,1.20
2018-01-25T08:34:19.261Z,1.50
2018-01-25T08:36:48.825Z,1.30
2018-01-25T08:39:18.302Z,1.40
2018-01-25T08:41:47.794Z,1.40
2018-01-25T08:44:17.298Z,1.50
2018-01-25T08:46:46.753Z,1.62
2018-01-25T08:49:16.225Z,2.75
2018-01-25T08:51:45.682Z,1.67
2018-01-25T08:54:15.182Z,1.40
2018-01-25T08:56:44.685Z,1.20
2018-01-25T08:59:14.189Z,1.37
2018-01-25T09:01:43.673Z,1.45
2018-01-25T09:04:13.188Z,1.50
2018-01-25T09:06:42.655Z,1.40
2018-01-25T09:09:12.273Z,26.25
2018-01-25T09:11:41.767Z,10.85
2018-01-25T09:14:11.353Z,4.95
2018-01-25T09:16:40.860Z,2.80
2018-01-25T09:19:10.394Z,1.70
2018-01-25T09:21:39.877Z,1.80
2018-01-25T09:24:09.383Z,1.48
2018-01-25T09:26:38.863Z,1.20
2018-01-25T09:29:08.342Z,1.10
2018-01-25T09:31:37.873Z,4.40
2018-01-25T09:34:07.339Z,3.50
2018-01-25T09:36:36.819Z,1.60
2018-01-25T09:39:06.294Z,1.70
2018-01-25T09:41:35.780Z,1.20
2018-01-25T09:44:05.295Z,1.15
2018-01-25T09:46:34.860Z,1.17
2018-01-25T09:49:04.509Z,1.27
2018-01-25T09:51:33.980Z,1.40
2018-01-25T09:54:03.489Z,1.20
2018-01-25T09:56:32.958Z,1.17
2018-01-25T09:59:02.489Z,3.58
2018-01-25T10:01:31.974Z,10.10
2018-01-25T10:04:01.526Z,6.53
2018-01-25T10:06:30.988Z,3.12
2018-01-25T10:09:00.576Z,1.85
2018-01-25T10:11:30.029Z,1.48
2018-01-25T10:13:59.530Z,3.60
2018-01-25T10:16:29.015Z,4.37
2018-01-25T10:18:58.504Z,2.10
2018-01-25T10:21:28.031Z,1.87
2018-01-25T10:23:57.506Z,1.40
2018-01-25T10:26:27.019Z,1.95
2018-01-25T10:28:57.334Z,2.22
2018-01-25T10:31:26.827Z,1.40
2018-01-25T10:33:56.311Z,1.30
2018-01-25T10:36:25.808Z,1.35
2018-01-25T10:38:55.313Z,1.75
2018-01-25T10:41:24.822Z,1.20
2018-01-25T10:43:54.279Z,1.20
2018-01-25T10:46:23.788Z,1.75
2018-01-25T10:48:53.286Z,1.40
2018-01-25T10:51:22.916Z,1.20
2018-01-25T10:53:52.422Z,1.10
2018-01-25T10:56:21.884Z,1.35
2018-01-25T10:58:51.443Z,1.65
2018-01-25T11:01:26.819Z,1.35
2018-01-25T11:03:57.191Z,1.50
2018-01-25T11:06:26.683Z,1.27
2018-01-25T11:08:56.183Z,1.60
2018-01-25T11:11:25.704Z,1.25
2018-01-25T11:13:55.183Z,1.55
2018-01-25T11:16:24.674Z,1.75
2018-01-25T11:18:54.134Z,1.33
2018-01-25T11:21:23.681Z,1.42
2018-01-25T11:23:53.268Z,1.30
2018-01-25T11:26:22.770Z,1.52
2018-01-25T11:28:52.229Z,1.33
2018-01-25T11:31:21.786Z,1.40
2018-01-25T11:33:51.323Z,1.23
2018-01-25T11:36:20.778Z,1.40
2018-01-25T11:38:50.269Z,1.40
2018-01-25T11:41:19.739Z,1.60
2018-01-25T11:43:49.427Z,1.45
2018-01-25T18:05:16.118Z,1.73
2018-01-25T18:07:45.830Z,1.90
2018-01-25T18:10:15.348Z,2.80
2018-01-25T18:12:44.845Z,2.17
2018-01-25T18:15:14.389Z,2.40
2018-01-25T18:17:43.854Z,2.30
2018-01-25T18:20:13.348Z,2.30
2018-01-25T18:22:42.810Z,2.60
2018-01-25T18:25:12.316Z,2.70
2018-01-25T18:27:41.784Z,2.55
2018-01-25T18:30:11.396Z,2.65
2018-01-25T18:32:40.881Z,2.10
2018-01-25T18:35:10.378Z,3.30
2018-01-25T18:37:39.872Z,2.55
2018-01-25T18:40:09.565Z,3.20
2018-01-25T18:42:39.061Z,3.22
2018-01-25T18:45:08.592Z,3.35
2018-01-25T18:47:38.223Z,2.90
2018-01-25T18:50:07.919Z,2.70
2018-01-25T18:52:37.457Z,2.90
2018-01-25T18:55:06.917Z,3.05
2018-01-25T18:57:36.457Z,3.30
2018-01-25T19:00:05.940Z,3.80
2018-01-25T19:02:35.497Z,3.12
2018-01-25T19:05:04.967Z,3.67
2018-01-25T19:07:34.492Z,3.30
2018-01-25T19:10:04.053Z,3.80
2018-01-25T19:12:33.563Z,3.50
2018-01-25T19:15:03.059Z,3.97
2018-01-25T19:17:32.559Z,3.97
2018-01-25T19:20:02.076Z,3.58
2018-01-25T19:22:31.654Z,3.50
2018-01-25T19:25:01.129Z,4.00
2018-01-25T19:27:30.666Z,4.10
2018-01-25T19:30:00.368Z,3.60
2018-01-25T19:32:30.012Z,3.15
2018-01-25T19:34:59.544Z,3.40
2018-01-25T19:37:29.037Z,5.28
2018-01-25T19:39:58.604Z,4.07
2018-01-25T19:42:28.141Z,3.62
2018-01-25T19:44:57.685Z,4.32
2018-01-25T19:47:27.283Z,3.90
2018-01-25T19:49:56.839Z,4.03
2018-01-25T19:52:26.338Z,4.20
2018-01-25T19:54:56.070Z,4.10
2018-01-25T19:57:25.573Z,4.95
2018-01-25T19:59:55.099Z,4.47
2018-01-25T20:02:24.597Z,5.60
2018-01-25T20:04:54.149Z,4.53
2018-01-25T20:07:23.641Z,4.50
2018-01-25T20:09:53.232Z,4.40
2018-01-25T20:12:22.727Z,4.47
2018-01-25T20:14:52.277Z,4.75
2018-01-25T20:17:22.230Z,4.75
2018-01-25T20:19:51.753Z,4.47
2018-01-25T20:22:21.348Z,4.20
2018-01-25T20:24:50.868Z,3.92
2018-01-25T20:27:20.401Z,3.97
2018-01-25T20:29:49.907Z,5.37
2018-01-25T20:32:19.420Z,5.00
2018-01-25T20:34:48.953Z,5.00
2018-01-25T20:37:18.496Z,4.57
2018-01-25T20:39:47.991Z,4.43
2018-01-25T20:42:17.506Z,4.50
2018-01-25T20:44:47.028Z,4.28
2018-01-25T20:47:16.555Z,5.03
2018-01-25T20:49:46.089Z,4.70
2018-01-25T20:52:15.613Z,4.07
2018-01-25T20:54:45.128Z,4.15
2018-01-25T20:57:14.702Z,4.10
2018-01-25T20:59:44.181Z,4.30
2018-01-25T21:02:13.717Z,4.40
2018-01-25T21:04:43.265Z,4.00
2018-01-25T21:07:12.750Z,4.80
2018-01-25T21:09:42.269Z,4.37
2018-01-25T21:12:11.746Z,4.47
2018-01-25T21:14:41.416Z,4.07
2018-01-25T21:17:10.936Z,4.53
2018-01-25T21:19:40.416Z,4.72
2018-01-25T21:22:10.005Z,4.78
2018-01-25T21:24:39.564Z,4.32
2018-01-25T21:27:09.144Z,4.35
2018-01-25T21:29:38.691Z,3.83
2018-01-25T21:32:08.216Z,5.00
2018-01-25T21:34:37.873Z,4.22
2018-01-25T21:37:07.340Z,4.85
2018-01-25T21:39:36.852Z,4.60
2018-01-25T21:42:06.428Z,4.90
2018-01-25T21:44:35.928Z,4.10
2018-01-25T21:47:05.447Z,4.57
2018-01-25T21:49:34.954Z,4.78
2018-01-25T21:52:04.474Z,4.45
2018-01-25T21:54:34.093Z,4.05
2018-01-25T21:57:03.606Z,3.95
2018-01-25T21:59:33.124Z,4.20
2018-01-25T22:02:02.601Z,3.78
2018-01-25T22:04:32.113Z,4.15
2018-01-25T22:07:01.566Z,4.15
2018-01-25T22:09:31.080Z,4.20
2018-01-25T22:12:00.641Z,4.37
2018-01-25T22:14:30.134Z,4.22
2018-01-25T22:16:59.662Z,3.60
2018-01-25T22:19:29.175Z,3.92
2018-01-25T22:21:58.623Z,3.92
2018-01-25T22:24:28.126Z,3.40
2018-01-25T22:26:57.583Z,3.55
2018-01-25T22:29:27.107Z,3.72
2018-01-25T22:31:56.670Z,3.37
2018-01-25T22:34:26.263Z,3.42
2018-01-25T22:36:55.789Z,3.28
2018-01-25T22:39:25.245Z,3.35
2018-01-25T22:41:54.873Z,3.30
2018-01-25T22:44:24.353Z,3.15
2018-01-25T22:46:53.850Z,2.90
2018-01-25T22:49:23.464Z,2.60
2018-01-25T22:51:52.941Z,2.85
2018-01-25T22:54:22.407Z,2.70
2018-01-25T22:56:51.916Z,2.25
2018-01-25T22:59:21.374Z,2.85
2018-01-25T23:01:50.881Z,2.75
2018-01-25T23:04:20.424Z,2.60
2018-01-25T23:06:49.941Z,2.53
2018-01-25T23:09:19.428Z,1.90
2018-01-25T23:11:48.930Z,1.85
2018-01-25T23:14:18.418Z,2.60
2018-01-25T23:16:47.905Z,2.00
2018-01-25T23:19:17.560Z,2.00
2018-01-25T23:21:47.021Z,2.05
2018-01-25T23:24:16.523Z,1.65
2018-01-25T23:26:46.036Z,1.60
2018-01-25T23:29:15.533Z,1.90
2018-01-25T23:31:45.003Z,1.70
2018-01-25T23:34:14.512Z,1.90
2018-01-25T23:36:43.965Z,1.75
2018-01-25T23:39:13.489Z,1.70
2018-01-25T23:41:42.951Z,1.40
2018-01-25T23:44:12.480Z,1.50
2018-01-25T23:46:41.968Z,1.60
2018-01-25T23:49:11.425Z,1.30
2018-01-25T23:51:40.950Z,1.25
2018-01-25T23:54:10.407Z,2.17
2018-01-25T23:56:39.929Z,1.40
2018-01-25T23:59:09.393Z,1.80
